Time;durP1;ratioP1;P1;durP2;ratioP2;P2;SDS_P1;SDS_P2;PMS_P1;PMS_P2;Temp;Humidity;BMP_temperature;BMP_pressure;BME280_temperature;BME280_humidity;BME280_pressure;Samples;Min_cycle;Max_cycle;Signal;HPM_P1;HPM_P2
2022/12/07 00:01:35;;;;;;;21.40;10.68;;;12.60;99.90;;;;;;4965230;28;20081;-73
2022/12/07 00:04:05;;;;;;;22.48;9.45;;;12.60;99.90;;;;;;4962116;28;20066;-74
2022/12/07 00:06:33;;;;;;;15.57;7.90;;;12.60;99.90;;;;;;4962080;28;20122;-74
2022/12/07 00:09:01;;;;;;;18.92;9.00;;;12.60;99.90;;;;;;4970975;28;20417;-74
2022/12/07 00:11:28;;;;;;;13.95;7.30;;;12.60;99.90;;;;;;4974151;28;20501;-73
2022/12/07 00:14:03;;;;;;;25.48;9.50;;;12.70;99.90;;;;;;4979734;28;20057;-74
2022/12/07 00:16:32;;;;;;;13.15;8.35;;;12.70;99.90;;;;;;4977244;28;20039;-73
2022/12/07 00:19:01;;;;;;;23.52;9.25;;;12.70;99.90;;;;;;4977515;28;20061;-73
2022/12/07 00:21:31;;;;;;;13.90;8.32;;;12.60;99.90;;;;;;4972862;28;20109;-73
2022/12/07 00:24:00;;;;;;;20.38;7.97;;;12.60;99.90;;;;;;4967837;28;20073;-73
2022/12/07 00:26:30;;;;;;;22.33;8.13;;;12.60;99.90;;;;;;4971632;28;20153;-73
2022/12/07 00:29:06;;;;;;;11.15;7.53;;;12.60;99.90;;;;;;4977647;28;20059;-73
2022/12/07 00:31:38;;;;;;;20.90;8.43;;;12.60;99.90;;;;;;4978055;28;20047;-73
2022/12/07 00:34:07;;;;;;;17.13;7.88;;;12.60;99.90;;;;;;4971192;28;20110;-73
2022/12/07 00:36:35;;;;;;;18.95;9.27;;;12.60;99.90;;;;;;4975447;28;20042;-73
2022/12/07 00:39:03;;;;;;;16.45;8.80;;;12.60;99.90;;;;;;4976385;28;20042;-73
2022/12/07 00:41:32;;;;;;;12.95;7.47;;;12.70;99.90;;;;;;4980493;28;20050;-73
2022/12/07 00:43:59;;;;;;;20.58;8.38;;;12.60;99.90;;;;;;4976076;28;20196;-73
2022/12/07 00:46:27;;;;;;;15.82;9.00;;;12.70;99.90;;;;;;4980366;28;20061;-73
2022/12/07 00:48:55;;;;;;;11.65;7.35;;;12.60;99.90;;;;;;4992419;28;20109;-73
2022/12/07 00:51:24;;;;;;;17.42;7.75;;;12.60;99.90;;;;;;4991113;28;20136;-73
2022/12/07 00:53:52;;;;;;;9.65;6.63;;;12.60;99.90;;;;;;4972190;28;20102;-74
2022/12/07 00:56:28;;;;;;;19.40;7.15;;;12.60;99.90;;;;;;4955049;28;20531;-73
2022/12/07 00:58:58;;;;;;;19.73;8.70;;;12.50;99.90;;;;;;4972564;28;20058;-73
2022/12/07 01:01:29;;;;;;;14.82;8.23;;;12.50;99.90;;;;;;4981144;28;20681;-74
2022/12/07 01:03:56;;;;;;;17.65;8.75;;;12.50;99.90;;;;;;4990063;28;20047;-73
2022/12/07 01:06:25;;;;;;;18.42;8.13;;;12.40;99.90;;;;;;4990138;28;20054;-73
2022/12/07 01:08:53;;;;;;;15.30;7.47;;;12.40;99.90;;;;;;4973947;28;20104;-74
2022/12/07 01:11:24;;;;;;;14.23;7.80;;;12.40;99.90;;;;;;4960315;28;20038;-73
2022/12/07 01:13:52;;;;;;;16.25;9.02;;;12.40;99.90;;;;;;4978366;28;20081;-72
2022/12/07 01:16:22;;;;;;;17.23;8.05;;;12.40;99.90;;;;;;4991859;28;20070;-72
2022/12/07 01:18:52;;;;;;;16.88;8.18;;;12.30;99.90;;;;;;4992236;28;20120;-73
2022/12/07 01:21:40;;;;;;;23.33;9.35;;;12.30;99.90;;;;;;4989778;28;20077;-74
2022/12/07 01:24:10;;;;;;;23.98;8.15;;;12.30;99.90;;;;;;4985413;28;20069;-72
2022/12/07 01:26:38;;;;;;;14.55;9.23;;;12.30;99.90;;;;;;4990798;28;20092;-73
2022/12/07 01:29:06;;;;;;;17.67;8.35;;;12.30;99.90;;;;;;4990323;28;20046;-72
2022/12/07 01:31:33;;;;;;;19.60;7.28;;;12.30;99.90;;;;;;4974769;28;20054;-72
2022/12/07 01:34:01;;;;;;;13.50;6.88;;;12.30;99.90;;;;;;4976948;28;20050;-72
2022/12/07 01:36:31;;;;;;;15.25;7.03;;;12.30;99.90;;;;;;4971000;28;20054;-72
2022/12/07 01:39:05;;;;;;;19.23;8.98;;;12.20;99.90;;;;;;4971157;28;20051;-72
2022/12/07 01:41:36;;;;;;;13.02;8.60;;;12.20;99.90;;;;;;4972323;28;20654;-73
2022/12/07 01:44:19;;;;;;;17.67;7.25;;;12.20;99.90;;;;;;4972201;28;20049;-72
2022/12/07 01:46:49;;;;;;;12.73;6.47;;;12.20;99.90;;;;;;4970915;28;20097;-73
2022/12/07 01:49:35;;;;;;;13.20;7.70;;;12.30;99.90;;;;;;4954587;28;20054;-73
2022/12/07 01:52:17;;;;;;;16.38;7.43;;;12.30;99.90;;;;;;4971744;28;20069;-72
2022/12/07 01:54:47;;;;;;;15.50;8.10;;;12.30;99.90;;;;;;4967441;28;20055;-72
2022/12/07 01:57:16;;;;;;;19.05;6.60;;;12.30;99.90;;;;;;4934998;29;20051;-72
2022/12/07 01:59:47;;;;;;;12.63;6.90;;;12.30;99.90;;;;;;4967198;28;20150;-73
2022/12/07 02:02:25;;;;;;;12.10;6.88;;;12.20;99.90;;;;;;4953345;28;20058;-73
2022/12/07 02:04:55;;;;;;;16.17;7.22;;;12.20;99.90;;;;;;4970698;28;20117;-73
2022/12/07 02:07:23;;;;;;;13.95;6.75;;;12.20;99.90;;;;;;4971955;28;20057;-73
2022/12/07 02:09:51;;;;;;;12.63;7.15;;;12.20;99.90;;;;;;4971868;28;20058;-74
2022/12/07 02:12:20;;;;;;;22.00;7.75;;;12.20;99.90;;;;;;4971962;28;20047;-73
2022/12/07 02:14:48;;;;;;;18.77;7.50;;;12.20;99.90;;;;;;4970408;28;20531;-73
2022/12/07 02:17:18;;;;;;;21.20;7.55;;;12.20;99.90;;;;;;4985485;28;20149;-74
2022/12/07 02:20:18;;;;;;;13.93;6.25;;;12.20;99.90;;;;;;4971994;28;20469;-74
2022/12/07 02:23:24;;;;;;;11.20;5.93;;;12.20;99.90;;;;;;4958968;28;20051;-73
2022/12/07 02:26:22;;;;;;;13.18;6.53;;;12.20;99.90;;;;;;4961092;28;20165;-73
2022/12/07 02:29:24;;;;;;;18.85;7.68;;;12.20;99.90;;;;;;4971468;28;20073;-73
2022/12/07 02:32:07;;;;;;;11.85;5.18;;;12.20;99.90;;;;;;4971124;28;20441;-73
2022/12/07 02:34:44;;;;;;;20.67;6.15;;;12.20;99.90;;;;;;4970375;28;20043;-73
2022/12/07 02:37:37;;;;;;;;;;;12.20;99.90;;;;;;4972011;28;20043;-74
2022/12/07 02:40:08;;;;;;;9.57;5.20;;;12.20;99.90;;;;;;4951815;28;20299;-73
2022/12/07 02:42:42;;;;;;;10.27;5.38;;;12.20;99.90;;;;;;4970728;28;20086;-75
2022/12/07 02:45:15;;;;;;;13.52;5.13;;;12.20;99.90;;;;;;4970504;28;20046;-73
2022/12/07 02:47:44;;;;;;;15.32;7.90;;;12.20;99.90;;;;;;4954511;28;20082;-73
2022/12/07 02:50:12;;;;;;;14.85;6.53;;;12.20;99.90;;;;;;4969579;28;20062;-73
2022/12/07 02:52:39;;;;;;;11.57;5.22;;;12.20;99.90;;;;;;4970935;28;20072;-73
2022/12/07 02:55:08;;;;;;;17.23;4.88;;;12.20;99.90;;;;;;4969328;28;20520;-73
2022/12/07 02:58:03;;;;;;;15.65;4.97;;;12.10;99.90;;;;;;4968675;28;20043;-73
2022/12/07 03:00:35;;;;;;;13.70;4.78;;;12.10;99.90;;;;;;4968232;28;20063;-73
2022/12/07 03:03:12;;;;;;;14.32;5.88;;;12.10;99.90;;;;;;4968993;28;20042;-74
2022/12/07 03:06:13;;;;;;;18.77;5.53;;;12.00;99.90;;;;;;4968888;28;20057;-75
2022/12/07 03:09:10;;;;;;;11.38;5.57;;;12.10;99.90;;;;;;4943488;28;20069;-74
2022/12/07 03:11:50;;;;;;;10.52;6.00;;;12.10;99.90;;;;;;4985414;28;20050;-73
2022/12/07 03:14:34;;;;;;;16.10;6.07;;;12.10;99.90;;;;;;4970894;28;20404;-74
2022/12/07 03:17:16;;;;;;;10.05;5.57;;;12.10;99.90;;;;;;4953025;28;20054;-73
2022/12/07 03:19:45;;;;;;;13.38;5.43;;;12.00;99.90;;;;;;4970686;28;20051;-74
2022/12/07 03:22:14;;;;;;;17.30;6.20;;;12.10;99.90;;;;;;4953402;28;20381;-74
2022/12/07 03:25:02;;;;;;;12.98;5.20;;;12.10;99.90;;;;;;4970341;28;20042;-73
2022/12/07 03:27:43;;;;;;;20.58;6.22;;;12.10;99.90;;;;;;4970656;28;20079;-73
2022/12/07 03:30:19;;;;;;;12.55;5.22;;;12.00;99.90;;;;;;4969339;28;20141;-73
2022/12/07 03:32:59;;;;;;;14.15;4.53;;;12.00;99.90;;;;;;4968951;28;20046;-73
2022/12/07 03:35:33;;;;;;;13.35;5.20;;;12.00;99.90;;;;;;4953062;28;20497;-73
2022/12/07 03:38:17;;;;;;;11.63;4.15;;;12.00;99.90;;;;;;4969741;28;20047;-73
2022/12/07 03:40:55;;;;;;;15.25;5.07;;;11.90;99.90;;;;;;4970485;28;20405;-74
2022/12/07 03:43:23;;;;;;;20.38;4.60;;;11.80;99.90;;;;;;4968813;28;20058;-74
2022/12/07 03:46:32;;;;;;;11.55;5.38;;;11.90;99.90;;;;;;4969254;28;20655;-73
2022/12/07 03:49:30;;;;;;;11.02;4.72;;;11.90;99.90;;;;;;4957577;28;20077;-74
2022/12/07 03:52:16;;;;;;;;;;;11.90;99.90;;;;;;4970662;28;20783;-73
2022/12/07 03:55:24;;;;;;;12.35;4.90;;;11.90;99.90;;;;;;4952332;28;20240;-73
2022/12/07 03:57:54;;;;;;;;;;;11.90;99.90;;;;;;4967608;28;20482;-73
2022/12/07 04:00:22;;;;;;;11.95;5.50;;;11.90;99.90;;;;;;4968776;28;20383;-73
2022/12/07 04:02:52;;;;;;;20.73;4.95;;;11.90;99.90;;;;;;4952242;28;20049;-74
2022/12/07 04:05:20;;;;;;;8.93;4.05;;;11.90;99.90;;;;;;4952751;28;20198;-73
2022/12/07 04:07:48;;;;;;;13.20;5.22;;;11.90;99.90;;;;;;4984697;28;20151;-73
2022/12/07 04:10:16;;;;;;;8.38;3.83;;;11.90;99.90;;;;;;4969148;28;20130;-73
2022/12/07 04:12:43;;;;;;;13.48;4.40;;;11.90;99.90;;;;;;4968974;28;20047;-73
2022/12/07 04:15:11;;;;;;;11.88;4.05;;;11.80;99.90;;;;;;4969625;28;20221;-73
2022/12/07 04:17:39;;;;;;;11.20;5.60;;;11.80;99.90;;;;;;4967979;28;20504;-74
2022/12/07 04:20:08;;;;;;;16.02;4.30;;;11.70;99.90;;;;;;4969857;28;20055;-73
2022/12/07 04:22:36;;;;;;;12.70;5.13;;;11.70;99.90;;;;;;4969426;28;20401;-73
2022/12/07 04:25:04;;;;;;;12.57;4.72;;;11.70;99.90;;;;;;4969676;28;20047;-73
2022/12/07 04:27:31;;;;;;;7.10;4.03;;;11.60;99.90;;;;;;4969672;28;20085;-73
2022/12/07 04:29:59;;;;;;;12.95;5.10;;;11.60;99.90;;;;;;4969310;28;20055;-73
2022/12/07 04:32:26;;;;;;;14.00;3.55;;;11.70;99.90;;;;;;4968192;28;20066;-73
2022/12/07 04:34:54;;;;;;;9.13;4.05;;;11.70;99.90;;;;;;4949920;28;20044;-73
2022/12/07 04:37:22;;;;;;;16.58;4.38;;;11.70;99.90;;;;;;4932544;29;20497;-73
2022/12/07 04:39:50;;;;;;;11.85;4.93;;;11.70;99.90;;;;;;4950013;28;20498;-73
2022/12/07 04:42:18;;;;;;;14.48;6.68;;;11.60;99.90;;;;;;4949973;29;20146;-73
2022/12/07 04:44:45;;;;;;;18.27;6.35;;;11.60;99.90;;;;;;4967061;28;20473;-73
2022/12/07 04:47:13;;;;;;;13.98;4.93;;;11.60;99.90;;;;;;4967725;28;20154;-73
2022/12/07 04:49:40;;;;;;;10.57;4.30;;;11.60;99.90;;;;;;4969235;28;20141;-73
2022/12/07 04:52:08;;;;;;;20.27;5.00;;;11.70;99.90;;;;;;4969449;28;20374;-73
2022/12/07 04:54:39;;;;;;;12.55;5.18;;;11.70;99.90;;;;;;4968935;28;20102;-73
2022/12/07 04:57:06;;;;;;;11.00;4.35;;;11.70;99.90;;;;;;4968026;28;20054;-73
2022/12/07 04:59:34;;;;;;;13.98;5.57;;;11.60;99.90;;;;;;4968929;28;20058;-73
2022/12/07 05:02:01;;;;;;;14.38;5.38;;;11.60;99.90;;;;;;4969028;28;20067;-74
2022/12/07 05:04:29;;;;;;;14.20;4.70;;;11.60;99.90;;;;;;4969611;28;20089;-73
2022/12/07 05:06:56;;;;;;;10.38;4.50;;;11.60;99.90;;;;;;4969502;28;20047;-73
2022/12/07 05:09:24;;;;;;;10.63;4.32;;;11.60;99.90;;;;;;4951850;28;20047;-72
2022/12/07 05:11:51;;;;;;;7.13;4.05;;;11.60;99.90;;;;;;4968964;28;20564;-73
2022/12/07 05:14:20;;;;;;;19.55;4.63;;;11.60;99.90;;;;;;4968960;28;20053;-73
2022/12/07 05:16:50;;;;;;;10.07;4.53;;;11.60;99.90;;;;;;4967980;28;20043;-73
2022/12/07 05:19:18;;;;;;;14.48;3.92;;;11.60;99.90;;;;;;4968984;28;20699;-73
2022/12/07 05:21:46;;;;;;;11.90;4.82;;;11.60;99.90;;;;;;4971553;28;20049;-72
2022/12/07 05:24:15;;;;;;;6.13;4.32;;;11.60;99.90;;;;;;4972695;28;20093;-73
2022/12/07 05:26:44;;;;;;;8.02;3.55;;;11.60;99.90;;;;;;4972769;28;20051;-73
2022/12/07 05:29:14;;;;;;;12.40;4.13;;;11.70;99.90;;;;;;4971990;28;20055;-73
2022/12/07 05:31:42;;;;;;;8.27;3.58;;;11.70;99.90;;;;;;4971394;28;20058;-73
2022/12/07 05:34:10;;;;;;;7.82;3.58;;;11.70;99.90;;;;;;4971367;28;20460;-73
2022/12/07 05:36:37;;;;;;;13.65;4.75;;;11.70;99.90;;;;;;4972487;28;20051;-73
2022/12/07 05:39:07;;;;;;;9.80;3.90;;;11.70;99.90;;;;;;4985075;28;20505;-74
2022/12/07 05:44:20;;;;;;;8.77;3.28;;;11.70;99.90;;;;;;4978257;28;20073;-73
2022/12/07 05:46:47;;;;;;;7.75;4.00;;;11.70;99.90;;;;;;4955365;28;20093;-73
2022/12/07 05:49:15;;;;;;;14.77;4.43;;;11.60;99.90;;;;;;4970303;28;20055;-73
2022/12/07 05:51:42;;;;;;;11.10;4.45;;;11.60;99.90;;;;;;4972741;28;20046;-73
2022/12/07 05:54:10;;;;;;;10.00;4.20;;;11.60;99.90;;;;;;4972450;28;20503;-73
2022/12/07 05:56:38;;;;;;;8.23;4.38;;;11.70;99.90;;;;;;4980721;28;20054;-73
2022/12/07 05:59:24;;;;;;;12.25;5.65;;;11.70;99.90;;;;;;4982743;28;20053;-73
2022/12/07 06:01:53;;;;;;;8.65;4.07;;;11.70;99.90;;;;;;4980710;28;20059;-73
2022/12/07 06:04:22;;;;;;;9.10;3.58;;;11.70;99.90;;;;;;4968112;28;20059;-75
2022/12/07 06:06:50;;;;;;;11.60;3.97;;;11.70;99.90;;;;;;4960214;28;20043;-74
2022/12/07 06:09:19;;;;;;;13.40;5.75;;;11.80;99.90;;;;;;4965047;28;20047;-74
2022/12/07 06:14:34;;;;;;;16.67;3.33;;;11.90;99.90;;;;;;4966390;28;20117;-75
2022/12/07 06:17:01;;;;;;;10.52;3.78;;;11.90;99.90;;;;;;4968740;28;20465;-74
2022/12/07 06:19:29;;;;;;;16.45;5.10;;;12.10;99.90;;;;;;4967685;28;20089;-74
2022/12/07 06:21:57;;;;;;;8.73;4.10;;;12.20;99.90;;;;;;4937723;28;20046;-73
2022/12/07 06:24:25;;;;;;;10.32;4.18;;;12.40;99.90;;;;;;4965129;28;20047;-72
2022/12/07 06:26:53;;;;;;;8.63;3.42;;;12.70;99.90;;;;;;4968518;28;20058;-73
2022/12/07 06:29:21;;;;;;;10.93;3.88;;;12.90;99.90;;;;;;4989201;28;20112;-73
2022/12/07 06:31:52;;;;;;;15.55;7.78;;;13.20;99.90;;;;;;4988696;28;20505;-76
2022/12/07 06:34:24;;;;;;;18.23;12.85;;;13.40;99.90;;;;;;4976166;28;20047;-73
2022/12/07 06:36:54;;;;;;;31.35;9.73;;;13.50;99.90;;;;;;4954222;28;20703;-76
2022/12/07 06:39:27;;;;;;;14.13;7.45;;;13.70;99.90;;;;;;4968272;28;20582;-74
2022/12/07 06:41:55;;;;;;;17.77;9.95;;;14.10;99.90;;;;;;4968712;28;20054;-74
2022/12/07 06:44:24;;;;;;;11.75;7.15;;;14.60;99.90;;;;;;4952788;28;20063;-74
2022/12/07 06:46:52;;;;;;;14.52;5.10;;;15.10;99.90;;;;;;4952704;28;20082;-74
2022/12/07 06:49:24;;;;;;;10.30;4.75;;;15.90;99.90;;;;;;4968120;28;20066;-72
2022/12/07 06:51:52;;;;;;;7.80;5.28;;;16.40;99.90;;;;;;4968906;28;20046;-72
2022/12/07 06:54:20;;;;;;;6.93;3.83;;;16.80;99.90;;;;;;4969555;28;20350;-71
2022/12/07 06:56:50;;;;;;;6.15;3.30;;;16.80;99.90;;;;;;4970170;28;20050;-72
2022/12/07 06:59:18;;;;;;;7.45;4.13;;;17.20;99.90;;;;;;4969303;28;20043;-72
2022/12/07 07:01:45;;;;;;;9.40;3.88;;;17.50;99.90;;;;;;4985947;28;20086;-73
2022/12/07 07:04:13;;;;;;;9.48;5.20;;;17.60;99.90;;;;;;4966797;28;20066;-73
2022/12/07 07:06:41;;;;;;;18.38;6.60;;;17.60;99.90;;;;;;4950214;28;20516;-72
2022/12/07 07:09:09;;;;;;;13.40;4.65;;;17.30;99.90;;;;;;4949835;28;20057;-72
2022/12/07 07:11:36;;;;;;;10.15;3.42;;;17.50;99.90;;;;;;4918808;29;20186;-72
2022/12/07 07:14:04;;;;;;;10.15;4.15;;;18.00;99.90;;;;;;4960912;28;20118;-72
2022/12/07 07:16:32;;;;;;;6.97;3.28;;;18.20;99.90;;;;;;4968577;28;20066;-72
2022/12/07 07:19:00;;;;;;;6.18;2.85;;;18.40;99.90;;;;;;4969001;28;20165;-72
2022/12/07 07:21:28;;;;;;;9.27;3.13;;;18.80;99.90;;;;;;4937327;28;20086;-73
2022/12/07 07:23:56;;;;;;;10.13;5.45;;;18.50;99.90;;;;;;4969161;28;20166;-71
2022/12/07 07:26:24;;;;;;;11.07;4.22;;;18.80;99.90;;;;;;4969218;28;20051;-72
2022/12/07 07:28:52;;;;;;;10.80;3.50;;;18.90;99.90;;;;;;4953255;28;20058;-74
2022/12/07 07:31:19;;;;;;;8.88;4.35;;;19.40;99.90;;;;;;4968938;28;20138;-73
2022/12/07 07:33:47;;;;;;;9.70;3.83;;;19.00;99.90;;;;;;4950025;28;20047;-71
2022/12/07 07:36:15;;;;;;;13.55;4.38;;;19.00;99.90;;;;;;4933718;29;20054;-72
2022/12/07 07:38:43;;;;;;;11.68;4.53;;;19.20;99.90;;;;;;4949956;29;20109;-72
2022/12/07 07:41:10;;;;;;;8.82;2.90;;;18.60;99.90;;;;;;4951137;28;20102;-71
2022/12/07 07:43:38;;;;;;;9.10;3.88;;;18.30;99.90;;;;;;4957783;28;20047;-72
2022/12/07 07:46:06;;;;;;;7.63;2.97;;;17.90;99.90;;;;;;4985181;28;20385;-72
2022/12/07 07:48:33;;;;;;;5.28;2.20;;;17.40;99.90;;;;;;4970099;28;20042;-73
2022/12/07 07:51:06;;;;;;;12.02;4.50;;;17.30;99.90;;;;;;4968988;28;20047;-72
2022/12/07 07:53:34;;;;;;;11.65;4.50;;;17.40;99.90;;;;;;4953463;28;20050;-71
2022/12/07 07:56:01;;;;;;;5.82;2.90;;;17.50;99.90;;;;;;4968711;28;20043;-72
2022/12/07 07:58:29;;;;;;;8.48;3.50;;;17.60;99.90;;;;;;4968970;28;20512;-73
2022/12/07 08:00:57;;;;;;;10.95;3.45;;;17.80;99.90;;;;;;4984511;28;20051;-72
2022/12/07 08:03:24;;;;;;;6.70;3.65;;;17.90;99.90;;;;;;4969957;28;20065;-71
2022/12/07 08:05:52;;;;;;;10.02;3.15;;;18.00;99.90;;;;;;4968783;28;20074;-71
2022/12/07 08:08:19;;;;;;;7.35;3.03;;;17.80;99.90;;;;;;4968875;28;20135;-72
2022/12/07 08:10:47;;;;;;;7.88;3.80;;;17.90;99.90;;;;;;4952357;28;20129;-72
2022/12/07 08:13:18;;;;;;;10.75;3.42;;;18.10;99.90;;;;;;4969828;28;20504;-72
2022/12/07 08:15:47;;;;;;;7.93;2.95;;;17.90;99.90;;;;;;4968615;28;20074;-72
2022/12/07 08:18:15;;;;;;;13.15;3.70;;;18.00;99.90;;;;;;4969519;28;20058;-72
2022/12/07 08:20:43;;;;;;;7.43;3.70;;;18.10;99.90;;;;;;4970005;28;20497;-72
2022/12/07 08:23:11;;;;;;;9.52;4.15;;;18.00;99.90;;;;;;4936140;28;20058;-73
2022/12/07 08:25:39;;;;;;;14.23;3.97;;;18.10;99.90;;;;;;4968041;28;20145;-72
2022/12/07 08:28:07;;;;;;;13.00;3.38;;;17.90;99.90;;;;;;4968731;28;20049;-71
2022/12/07 08:30:35;;;;;;;10.07;2.70;;;17.70;99.90;;;;;;4967791;28;20047;-73
2022/12/07 08:33:02;;;;;;;8.65;3.85;;;17.60;99.90;;;;;;4951984;28;20153;-73
2022/12/07 08:35:32;;;;;;;9.20;3.38;;;17.40;99.90;;;;;;4952330;28;20409;-71
2022/12/07 08:38:01;;;;;;;13.05;3.78;;;17.40;99.90;;;;;;4952570;28;20417;-72
2022/12/07 08:40:29;;;;;;;10.93;3.45;;;17.40;99.90;;;;;;4984291;28;20137;-72
2022/12/07 08:42:57;;;;;;;9.30;3.78;;;17.50;99.90;;;;;;4967998;28;20046;-72
2022/12/07 08:45:25;;;;;;;8.68;2.88;;;17.60;99.90;;;;;;4967998;28;20062;-72
2022/12/07 08:47:56;;;;;;;11.13;3.25;;;17.80;99.90;;;;;;4951787;28;20051;-73
2022/12/07 08:50:24;;;;;;;20.58;4.95;;;17.70;99.90;;;;;;4968051;28;20046;-71
2022/12/07 08:52:56;;;;;;;7.85;3.67;;;17.70;99.90;;;;;;4968295;28;20059;-73
2022/12/07 08:55:24;;;;;;;14.07;3.03;;;17.80;99.90;;;;;;4950557;28;20055;-73
2022/12/07 08:57:52;;;;;;;8.00;2.95;;;17.90;99.90;;;;;;4936477;28;20051;-72
2022/12/07 09:00:20;;;;;;;11.07;3.90;;;17.80;99.90;;;;;;4951970;29;20509;-72
2022/12/07 09:02:47;;;;;;;9.48;3.47;;;17.90;99.90;;;;;;4936592;29;20109;-72
2022/12/07 09:05:15;;;;;;;10.60;3.55;;;17.90;99.90;;;;;;4986583;28;20046;-73
2022/12/07 09:07:45;;;;;;;9.80;3.70;;;18.10;99.90;;;;;;4973009;28;20042;-74
2022/12/07 09:10:13;;;;;;;12.10;3.97;;;18.10;99.90;;;;;;4988028;28;20098;-72
2022/12/07 09:12:41;;;;;;;7.25;3.40;;;18.20;99.90;;;;;;4973112;28;20133;-72
2022/12/07 09:15:09;;;;;;;11.40;3.78;;;18.10;99.90;;;;;;4971752;28;20039;-72
2022/12/07 09:17:37;;;;;;;13.30;3.13;;;18.10;99.90;;;;;;4971640;28;20078;-73
2022/12/07 09:20:06;;;;;;;18.20;3.83;;;18.20;99.90;;;;;;4954580;28;20327;-72
2022/12/07 09:22:34;;;;;;;8.60;2.83;;;18.20;99.90;;;;;;4972589;28;20051;-72
2022/12/07 09:25:03;;;;;;;7.75;2.58;;;18.20;99.90;;;;;;4973117;28;20396;-72
2022/12/07 09:27:31;;;;;;;12.10;3.17;;;17.80;99.90;;;;;;4956146;28;20110;-74
2022/12/07 09:29:58;;;;;;;9.85;3.67;;;17.50;99.90;;;;;;4955881;28;20054;-72
2022/12/07 09:32:26;;;;;;;12.30;2.55;;;17.50;99.90;;;;;;4973069;28;20038;-71
2022/12/07 09:34:53;;;;;;;5.18;2.65;;;17.50;99.90;;;;;;4971806;28;20097;-72
2022/12/07 09:37:21;;;;;;;11.02;3.42;;;17.50;99.90;;;;;;4955212;28;20057;-71
2022/12/07 09:39:49;;;;;;;7.82;2.45;;;17.40;99.90;;;;;;4971593;28;20141;-71
2022/12/07 09:42:35;;;;;;;10.43;3.15;;;17.60;99.90;;;;;;4973348;28;20129;-71
2022/12/07 09:45:07;;;;;;;6.85;2.80;;;17.80;99.90;;;;;;4972876;28;20058;-73
2022/12/07 09:47:35;;;;;;;5.93;3.15;;;17.90;99.90;;;;;;4972906;28;20074;-72
2022/12/07 09:50:13;;;;;;;9.57;2.75;;;17.90;99.90;;;;;;4971723;28;20061;-71
2022/12/07 09:52:43;;;;;;;9.30;2.88;;;17.80;99.90;;;;;;4955351;28;20078;-72
2022/12/07 09:55:14;;;;;;;7.28;3.03;;;17.70;99.90;;;;;;4971305;28;20042;-73
2022/12/07 09:57:43;;;;;;;9.52;4.03;;;17.60;99.90;;;;;;4954924;28;20145;-72
2022/12/07 10:00:16;;;;;;;9.13;4.53;;;17.40;99.90;;;;;;4986889;28;20069;-72
2022/12/07 10:03:01;;;;;;;13.75;4.28;;;17.10;99.90;;;;;;4971293;28;20047;-71
2022/12/07 10:05:45;;;;;;;10.55;3.83;;;17.00;99.90;;;;;;4971786;28;20042;-71
2022/12/07 10:08:15;;;;;;;8.40;3.85;;;16.90;99.90;;;;;;4970744;28;20509;-74
2022/12/07 10:10:44;;;;;;;14.30;5.85;;;16.80;99.90;;;;;;4972318;28;20137;-71
2022/12/07 10:13:14;;;;;;;10.35;3.60;;;16.80;99.90;;;;;;4972311;28;20473;-72
2022/12/07 10:15:52;;;;;;;14.90;4.93;;;16.80;99.90;;;;;;4971180;28;20500;-71
2022/12/07 10:18:26;;;;;;;7.78;3.22;;;16.90;99.90;;;;;;4954631;28;20053;-72
2022/12/07 10:21:16;;;;;;;6.47;3.22;;;17.00;99.90;;;;;;4970850;28;20059;-71
2022/12/07 10:24:17;;;;;;;10.32;4.95;;;17.10;99.90;;;;;;4970209;28;20101;-72
2022/12/07 10:26:48;;;;;;;14.00;3.88;;;17.10;99.90;;;;;;4970718;28;20082;-71
2022/12/07 10:29:28;;;;;;;9.65;3.90;;;16.90;99.90;;;;;;4964519;28;20043;-73
2022/12/07 10:32:05;;;;;;;10.93;3.58;;;16.90;99.90;;;;;;4967408;28;20062;-71
2022/12/07 10:34:37;;;;;;;7.13;3.33;;;16.90;99.90;;;;;;4966932;28;20066;-74
2022/12/07 10:37:16;;;;;;;9.98;4.07;;;16.80;99.90;;;;;;4952521;29;20043;-72
2022/12/07 10:39:48;;;;;;;;;;;16.80;99.90;;;;;;4987039;28;20047;-72
2022/12/07 10:42:23;;;;;;;10.05;4.13;;;16.60;99.90;;;;;;4970162;28;20016;-72
2022/12/07 10:45:09;;;;;;;8.90;2.75;;;16.70;99.90;;;;;;4986076;28;20054;-74
2022/12/07 10:47:58;;;;;;;7.50;2.65;;;16.90;99.90;;;;;;4970351;28;20039;-72
2022/12/07 10:51:02;;;;;;;13.90;3.53;;;17.00;99.90;;;;;;4971125;28;20134;-72
2022/12/07 10:53:58;;;;;;;5.00;2.38;;;17.10;99.90;;;;;;4969220;28;20178;-73
2022/12/07 10:57:13;;;;;;;8.65;3.20;;;16.90;99.90;;;;;;4969831;28;20054;-72
2022/12/07 11:00:08;;;;;;;11.00;3.70;;;16.80;99.90;;;;;;4919093;29;20058;-72
2022/12/07 11:02:38;;;;;;;8.50;4.15;;;17.10;99.90;;;;;;4949601;28;20414;-72
2022/12/07 11:05:28;;;;;;;11.75;3.22;;;17.10;99.90;;;;;;4950296;29;20053;-74
2022/12/07 11:08:00;;;;;;;7.63;3.03;;;17.20;99.90;;;;;;4955264;28;20072;-75
2022/12/07 11:10:39;;;;;;;8.55;3.80;;;17.40;99.90;;;;;;4969414;28;20050;-72
2022/12/07 11:13:22;;;;;;;6.03;2.85;;;17.60;99.90;;;;;;4934240;29;20131;-73
2022/12/07 11:16:11;;;;;;;7.30;3.42;;;17.50;99.90;;;;;;4951656;29;20078;-72
2022/12/07 11:19:24;;;;;;;6.15;2.97;;;17.40;99.90;;;;;;4952238;28;20054;-71
2022/12/07 11:21:57;;;;;;;6.63;3.17;;;17.60;99.90;;;;;;4953774;28;20367;-72
2022/12/07 11:24:56;;;;;;;8.00;2.83;;;17.70;99.90;;;;;;4968785;28;20039;-72
2022/12/07 11:27:36;;;;;;;8.27;3.67;;;17.80;99.90;;;;;;4969097;28;20095;-72
2022/12/07 11:30:20;;;;;;;4.32;2.40;;;17.80;99.90;;;;;;4969049;28;20071;-71
2022/12/07 11:33:02;;;;;;;11.00;3.13;;;17.40;99.90;;;;;;4968935;28;20070;-71
2022/12/07 11:36:04;;;;;;;7.85;3.42;;;17.20;99.90;;;;;;4969625;28;20049;-72
2022/12/07 11:38:41;;;;;;;9.18;3.00;;;17.10;99.90;;;;;;4952911;28;20066;-73
2022/12/07 11:41:15;;;;;;;9.60;4.15;;;17.10;99.90;;;;;;4968811;28;20038;-72
2022/12/07 11:44:25;;;;;;;7.10;2.53;;;17.00;99.90;;;;;;4970201;28;20043;-73
2022/12/07 11:47:08;;;;;;;7.38;2.88;;;16.90;99.90;;;;;;4949159;28;20485;-71
2022/12/07 11:49:55;;;;;;;10.52;4.10;;;16.80;99.90;;;;;;4968359;28;20047;-71
2022/12/07 11:52:32;;;;;;;15.77;5.00;;;16.80;99.90;;;;;;4970449;28;20085;-72
2022/12/07 11:55:01;;;;;;;15.07;4.57;;;16.90;99.90;;;;;;4968288;28;20062;-71
2022/12/07 11:57:40;;;;;;;13.40;4.53;;;17.00;99.90;;;;;;4968331;28;20509;-72
2022/12/07 12:00:17;;;;;;;11.70;4.53;;;17.00;99.90;;;;;;4969817;28;20054;-72
2022/12/07 12:03:01;;;;;;;10.75;5.15;;;17.00;99.90;;;;;;4968509;28;20055;-73
2022/12/07 12:05:29;;;;;;;18.52;5.18;;;16.90;99.90;;;;;;4984829;28;20042;-72
2022/12/07 12:08:06;;;;;;;8.00;4.22;;;16.90;99.90;;;;;;4969078;28;20119;-72
2022/12/07 12:11:21;;;;;;;5.50;2.90;;;16.90;99.90;;;;;;4955055;28;20386;-71
2022/12/07 12:14:29;;;;;;;9.10;3.92;;;16.80;99.90;;;;;;4968488;28;20377;-73
2022/12/07 12:17:03;;;;;;;12.13;3.33;;;16.70;99.90;;;;;;4968460;28;20493;-72
2022/12/07 12:19:59;;;;;;;8.25;3.03;;;16.70;99.90;;;;;;4952179;28;20113;-75
2022/12/07 12:22:38;;;;;;;7.13;3.75;;;16.60;99.90;;;;;;4952830;28;20149;-74
2022/12/07 12:25:16;;;;;;;10.57;3.85;;;16.60;99.90;;;;;;4968342;28;20054;-79
2022/12/07 12:27:47;;;;;;;6.57;2.97;;;16.60;99.90;;;;;;4968649;28;20568;-72
2022/12/07 12:30:31;;;;;;;7.78;2.85;;;16.60;99.90;;;;;;4951967;28;20445;-72
2022/12/07 12:33:29;;;;;;;8.73;3.58;;;16.50;99.90;;;;;;4969773;28;20043;-72
2022/12/07 12:36:46;;;;;;;7.90;4.45;;;16.50;99.90;;;;;;4947083;28;20074;-72
2022/12/07 12:39:18;;;;;;;9.40;5.07;;;16.60;99.90;;;;;;4965855;28;20053;-71
2022/12/07 12:44:17;;;;;;;12.07;5.70;;;16.80;99.90;;;;;;4970163;28;20047;-75
2022/12/07 12:46:58;;;;;;;9.32;4.50;;;16.90;99.90;;;;;;4952590;28;20055;-72
2022/12/07 12:49:25;;;;;;;8.77;3.15;;;17.00;99.90;;;;;;4984242;28;20047;-73
2022/12/07 12:51:53;;;;;;;9.70;3.83;;;17.20;99.90;;;;;;4952276;28;20062;-72
2022/12/07 12:54:25;;;;;;;9.70;5.70;;;17.10;99.90;;;;;;4969354;28;20038;-72
2022/12/07 12:57:14;;;;;;;19.10;6.63;;;17.10;99.90;;;;;;4968621;28;20077;-72
2022/12/07 12:59:51;;;;;;;13.38;5.53;;;16.90;99.90;;;;;;4968623;28;20047;-72
2022/12/07 13:02:37;;;;;;;25.00;5.15;;;16.90;99.90;;;;;;4968531;28;20580;-72
2022/12/07 13:05:09;;;;;;;14.00;4.93;;;17.00;99.90;;;;;;4968731;28;20042;-72
2022/12/07 13:07:52;;;;;;;14.07;7.70;;;17.00;99.90;;;;;;4968292;28;20544;-77
2022/12/07 13:10:23;;;;;;;7.95;3.75;;;17.00;99.90;;;;;;4968379;28;20066;-73
2022/12/07 13:12:59;;;;;;;11.80;4.65;;;17.00;99.90;;;;;;4967802;28;20485;-72
2022/12/07 13:15:50;;;;;;;8.75;4.22;;;17.00;99.90;;;;;;4969240;28;20046;-72
2022/12/07 13:18:25;;;;;;;9.13;3.55;;;16.90;99.90;;;;;;4968206;28;20047;-72
2022/12/07 13:21:00;;;;;;;11.75;4.57;;;16.80;99.90;;;;;;4968370;28;20039;-73
2022/12/07 13:23:44;;;;;;;11.60;4.90;;;16.70;99.90;;;;;;4967516;28;20053;-75